Time;durP1;ratioP1;P1;durP2;ratioP2;P2;SDS_P1;SDS_P2;PMS_P1;PMS_P2;Temp;Humidity;BMP_temperature;BMP_pressure;BME280_temperature;BME280_humidity;BME280_pressure;Samples;Min_cycle;Max_cycle;Signal;HPM_P1;HPM_P2
2021/10/14 00:01:55;;;;;;;13.82;10.93;;;;;;;17.05;45.03;95648.72;5087281;28;20024;-72
2021/10/14 00:04:20;;;;;;;14.82;10.18;;;;;;;17.07;44.98;95654.78;5087628;28;20016;-73
2021/10/14 00:06:45;;;;;;;15.32;9.35;;;;;;;17.10;44.94;95657.09;5086940;28;20066;-73
2021/10/14 00:09:14;;;;;;;12.80;10.00;;;;;;;17.10;44.79;95651.69;5071026;28;20020;-73
2021/10/14 00:11:40;;;;;;;12.57;9.82;;;;;;;17.11;44.90;95655.19;5057566;28;20426;-72
2021/10/14 00:14:06;;;;;;;12.20;9.40;;;;;;;17.12;44.70;95644.16;5067476;28;20499;-73
2021/10/14 00:16:31;;;;;;;12.82;10.07;;;;;;;17.11;44.66;95645.19;5032849;28;20074;-73
2021/10/14 00:18:58;;;;;;;14.05;10.00;;;;;;;17.12;44.69;95648.75;5053481;28;20898;-73
2021/10/14 00:21:24;;;;;;;12.88;9.45;;;;;;;17.11;44.82;95647.06;5070051;28;20051;-72
2021/10/14 00:23:49;;;;;;;12.70;9.80;;;;;;;17.12;44.67;95648.75;5069787;28;20028;-73
2021/10/14 00:26:14;;;;;;;11.65;9.23;;;;;;;17.12;44.70;95651.47;5088749;28;20028;-73
2021/10/14 00:28:40;;;;;;;12.43;9.68;;;;;;;17.11;44.78;95656.03;5069424;28;20024;-72
2021/10/14 00:31:05;;;;;;;11.90;9.43;;;;;;;17.11;44.72;95658.75;5070270;28;20032;-72
2021/10/14 00:33:31;;;;;;;13.65;10.05;;;;;;;17.10;44.77;95657.09;5049693;28;20036;-72
2021/10/14 00:35:56;;;;;;;10.88;8.95;;;;;;;17.09;44.97;95663.53;5049579;28;20029;-72
2021/10/14 00:38:21;;;;;;;11.65;8.48;;;;;;;17.09;44.93;95658.13;5067693;28;20032;-72
2021/10/14 00:40:48;;;;;;;12.07;9.45;;;;;;;17.08;45.05;95650.16;5069249;28;20461;-72
2021/10/14 00:43:13;;;;;;;12.05;8.73;;;;;;;17.08;44.86;95652.88;5070454;28;20024;-72
2021/10/14 00:45:39;;;;;;;11.95;8.75;;;;;;;17.07;44.83;95654.78;5086149;28;20035;-72
2021/10/14 00:48:05;;;;;;;12.07;8.95;;;;;;;17.06;44.83;95650.38;5088522;28;20024;-72
2021/10/14 00:50:30;;;;;;;10.82;9.02;;;;;;;17.06;45.03;95653.09;5064908;28;20028;-72
2021/10/14 00:52:57;;;;;;;12.27;9.13;;;;;;;17.04;44.95;95649.75;5086741;28;20028;-72
2021/10/14 00:55:22;;;;;;;10.57;8.35;;;;;;;17.05;44.96;95648.72;5087237;28;20034;-72
2021/10/14 00:57:48;;;;;;;12.18;8.88;;;;;;;17.03;44.98;95643.53;5086528;28;20024;-72
2021/10/14 01:00:14;;;;;;;10.88;8.75;;;;;;;17.03;45.11;95648.09;5087421;28;20099;-72
2021/10/14 01:02:39;;;;;;;11.30;8.82;;;;;;;17.03;44.83;95648.09;5086097;28;20035;-72
2021/10/14 01:05:05;;;;;;;11.80;8.93;;;;;;;17.02;45.13;95651.88;5088187;28;20035;-72
2021/10/14 01:07:30;;;;;;;10.90;8.50;;;;;;;17.01;44.89;95663.72;5085803;28;20474;-72
2021/10/14 01:09:56;;;;;;;11.13;8.88;;;;;;;17.02;45.03;95662.72;5052691;28;20069;-72
2021/10/14 01:12:22;;;;;;;11.20;8.52;;;;;;;17.00;45.03;95657.50;5048863;28;20035;-72
2021/10/14 01:14:47;;;;;;;11.95;9.15;;;;;;;17.00;45.23;95652.09;5065643;28;20113;-72
2021/10/14 01:17:12;;;;;;;10.50;8.55;;;;;;;17.01;45.09;95661.88;5085566;28;20044;-72
2021/10/14 01:19:41;;;;;;;10.95;8.40;;;;;;;17.01;45.29;95672.69;5086094;28;20036;-72
2021/10/14 01:22:07;;;;;;;11.23;8.48;;;;;;;17.02;45.15;95665.41;5068345;28;20073;-73
2021/10/14 01:24:32;;;;;;;11.40;8.43;;;;;;;17.03;44.94;95664.38;5065390;28;20037;-72
2021/10/14 01:27:04;;;;;;;10.02;8.02;;;;;;;17.07;45.26;95656.66;5070495;28;20077;-72
2021/10/14 01:29:30;;;;;;;10.68;8.88;;;;;;;17.07;45.23;95656.66;5085695;28;20031;-72
2021/10/14 01:31:55;;;;;;;11.05;8.55;;;;;;;17.08;45.21;95656.47;5086237;28;20036;-72
2021/10/14 01:34:21;;;;;;;12.43;8.48;;;;;;;17.09;45.53;95650.00;5068230;28;20031;-73
2021/10/14 01:36:46;;;;;;;9.55;7.75;;;;;;;17.10;44.92;95651.69;5086035;28;20416;-72
2021/10/14 01:39:11;;;;;;;9.65;7.70;;;;;;;17.11;45.06;95644.34;5085369;28;20016;-72
2021/10/14 01:41:37;;;;;;;11.00;7.97;;;;;;;17.11;44.96;95642.50;5055280;28;20491;-72
2021/10/14 01:44:03;;;;;;;10.40;7.78;;;;;;;17.13;44.86;95643.13;5049015;28;20039;-72
2021/10/14 01:46:28;;;;;;;9.77;7.78;;;;;;;17.13;45.16;95653.97;5064874;28;20067;-72
2021/10/14 01:48:53;;;;;;;9.50;7.63;;;;;;;17.13;45.22;95648.53;5048168;28;20037;-72
2021/10/14 01:51:19;;;;;;;9.95;7.90;;;;;;;17.14;45.11;95650.19;5075520;28;20028;-73
2021/10/14 01:53:44;;;;;;;9.98;7.70;;;;;;;17.13;44.93;95642.28;5073726;28;20480;-72
2021/10/14 01:56:10;;;;;;;10.27;7.85;;;;;;;17.13;44.82;95648.53;5076471;28;20085;-72
2021/10/14 01:58:35;;;;;;;9.65;7.10;;;;;;;17.11;44.90;95656.03;5068530;28;20398;-72
2021/10/14 02:01:01;;;;;;;10.00;7.68;;;;;;;17.13;45.06;95658.53;5085370;28;20407;-72
2021/10/14 02:03:26;;;;;;;10.45;7.90;;;;;;;17.14;45.05;95662.91;5084744;28;20439;-72
2021/10/14 02:05:51;;;;;;;9.13;7.55;;;;;;;17.14;44.72;95660.19;5087146;28;20043;-72
2021/10/14 02:08:17;;;;;;;9.93;7.70;;;;;;;17.14;45.01;95660.19;5084499;28;20039;-72
2021/10/14 02:10:42;;;;;;;9.10;7.07;;;;;;;17.14;44.87;95666.44;5068582;28;20024;-72
2021/10/14 02:13:08;;;;;;;11.13;7.65;;;;;;;17.14;44.97;95668.31;5084536;28;20024;-72
2021/10/14 02:15:33;;;;;;;10.13;7.55;;;;;;;17.13;44.78;95672.94;5068642;28;20024;-72
2021/10/14 02:17:59;;;;;;;10.00;7.60;;;;;;;17.13;44.96;95675.63;5084750;28;20040;-72
2021/10/14 02:20:24;;;;;;;9.75;7.63;;;;;;;17.13;44.86;95667.50;5084727;28;20185;-72
2021/10/14 02:22:49;;;;;;;9.35;7.38;;;;;;;17.13;44.86;95670.22;5086192;28;20764;-72
2021/10/14 02:25:15;;;;;;;8.35;6.78;;;;;;;17.15;44.96;95681.66;5067420;28;20050;-72
2021/10/14 02:27:41;;;;;;;10.32;7.60;;;;;;;17.15;44.75;95678.13;5068764;28;20027;-72
2021/10/14 02:30:07;;;;;;;8.55;6.78;;;;;;;17.14;44.91;95685.41;5084379;28;20031;-72
2021/10/14 02:32:33;;;;;;;8.40;6.63;;;;;;;17.14;44.94;95690.84;5068284;28;20166;-73
2021/10/14 02:34:58;;;;;;;9.80;7.10;;;;;;;17.13;44.82;95686.47;5084561;28;20425;-72
2021/10/14 02:37:24;;;;;;;8.48;6.60;;;;;;;17.12;44.81;95684.78;5068010;28;20728;-72
2021/10/14 02:39:50;;;;;;;8.70;7.28;;;;;;;17.12;44.91;95683.97;5068131;28;20495;-73
2021/10/14 02:42:15;;;;;;;8.57;7.03;;;;;;;17.12;44.88;95690.22;5050837;28;20024;-72
2021/10/14 02:44:40;;;;;;;9.38;7.70;;;;;;;17.12;44.83;95694.81;5084976;28;20039;-72
2021/10/14 02:47:06;;;;;;;8.45;6.82;;;;;;;17.13;44.88;95697.31;5085689;28;20020;-72
2021/10/14 02:49:31;;;;;;;9.40;7.05;;;;;;;17.13;44.67;95696.47;5085038;28;20081;-72
2021/10/14 02:51:57;;;;;;;7.55;6.45;;;;;;;17.14;44.80;95701.69;5083725;28;20039;-72
2021/10/14 02:54:22;;;;;;;8.40;6.50;;;;;;;17.14;44.83;95704.38;5085617;28;20498;-72
2021/10/14 02:56:47;;;;;;;9.10;6.78;;;;;;;17.12;44.92;95698.34;5101427;28;20031;-72
2021/10/14 02:59:13;;;;;;;9.95;7.25;;;;;;;17.12;44.77;95698.34;5052543;28;20035;-72
2021/10/14 03:01:38;;;;;;;8.48;7.05;;;;;;;17.11;44.77;95704.81;5088932;28;20028;-73
2021/10/14 03:04:04;;;;;;;7.30;6.50;;;;;;;17.11;44.92;95710.22;5087938;28;20032;-72
2021/10/14 03:06:29;;;;;;;9.40;6.50;;;;;;;17.13;44.61;95718.16;5088656;28;20032;-72
2021/10/14 03:08:55;;;;;;;7.85;6.47;;;;;;;17.13;44.81;95715.44;5071320;28;20449;-72
2021/10/14 03:11:20;;;;;;;9.25;6.85;;;;;;;17.11;44.80;95712.94;5088471;28;20094;-72
2021/10/14 03:13:45;;;;;;;8.48;6.60;;;;;;;17.12;44.88;95716.50;5088081;28;20023;-73
2021/10/14 03:16:11;;;;;;;7.90;6.28;;;;;;;17.09;44.66;95716.91;5071249;28;20028;-73
2021/10/14 03:18:36;;;;;;;7.70;5.78;;;;;;;17.11;44.97;95714.81;5054369;28;20048;-72
2021/10/14 03:21:02;;;;;;;7.43;6.13;;;;;;;17.10;44.55;95714.00;5088291;28;20020;-73
2021/10/14 03:23:27;;;;;;;7.32;6.22;;;;;;;17.10;44.75;95714.00;5089901;28;20512;-72
2021/10/14 03:25:53;;;;;;;8.38;6.15;;;;;;;17.10;44.80;95716.72;5070949;28;20406;-72
2021/10/14 03:28:18;;;;;;;8.15;6.25;;;;;;;17.09;44.85;95723.16;5088532;28;20470;-72
2021/10/14 03:30:43;;;;;;;8.25;6.40;;;;;;;17.11;44.59;95721.06;5089000;28;20032;-72
2021/10/14 03:33:09;;;;;;;7.22;5.93;;;;;;;17.10;44.84;95722.13;5088463;28;20036;-72
2021/10/14 03:35:34;;;;;;;8.32;6.20;;;;;;;17.10;44.76;95719.41;5070498;28;20040;-72
2021/10/14 03:38:01;;;;;;;6.43;5.50;;;;;;;17.09;44.54;95715.03;5089036;28;20024;-71
2021/10/14 03:40:27;;;;;;;7.57;6.13;;;;;;;17.09;44.74;95711.50;5054470;28;20024;-72
2021/10/14 03:42:52;;;;;;;7.80;5.90;;;;;;;17.10;44.58;95718.56;5070505;28;20042;-72
2021/10/14 03:45:17;;;;;;;8.18;6.28;;;;;;;17.07;44.65;95714.41;5088258;28;20405;-72
2021/10/14 03:47:43;;;;;;;7.60;6.55;;;;;;;17.08;44.53;95716.06;5088146;28;20036;-74
2021/10/14 03:50:09;;;;;;;8.07;6.43;;;;;;;17.06;44.79;95723.53;5089476;28;20429;-72
2021/10/14 03:52:35;;;;;;;7.43;6.15;;;;;;;17.05;44.48;95717.31;5087291;28;20032;-72
2021/10/14 03:55:00;;;;;;;6.82;5.85;;;;;;;17.04;44.56;95717.50;5070893;28;20506;-72
2021/10/14 03:57:25;;;;;;;6.97;5.57;;;;;;;17.04;44.54;95720.22;5088670;28;20028;-72
2021/10/14 03:59:51;;;;;;;8.18;6.10;;;;;;;17.03;44.76;95724.81;5088659;28;20482;-72
2021/10/14 04:02:16;;;;;;;9.32;5.82;;;;;;;17.03;44.77;95734.81;5087916;28;20051;-72
2021/10/14 04:04:42;;;;;;;6.70;5.93;;;;;;;17.00;44.88;95727.09;5086932;28;20028;-72
2021/10/14 04:07:07;;;;;;;7.38;5.65;;;;;;;17.01;44.68;95726.06;5087741;28;20035;-72
2021/10/14 04:09:33;;;;;;;7.72;6.03;;;;;;;17.00;44.65;95729.81;5069804;28;20024;-72
2021/10/14 04:11:58;;;;;;;8.32;6.07;;;;;;;17.00;44.72;95729.81;5086725;28;20030;-72
2021/10/14 04:14:24;;;;;;;6.78;5.45;;;;;;;16.99;44.71;95728.16;5053370;28;20024;-72
2021/10/14 04:16:49;;;;;;;6.60;5.43;;;;;;;17.02;44.71;95728.53;5086877;28;20028;-72
2021/10/14 04:19:14;;;;;;;6.65;5.50;;;;;;;17.03;44.74;95727.53;5087305;28;20456;-72
2021/10/14 04:21:40;;;;;;;6.07;5.13;;;;;;;17.04;44.52;95731.03;5088041;28;20539;-72
2021/10/14 04:24:06;;;;;;;8.45;5.90;;;;;;;17.06;44.81;95731.66;5088703;28;20028;-71
2021/10/14 04:26:31;;;;;;;6.13;5.53;;;;;;;17.07;44.47;95727.09;5069312;28;20043;-71
2021/10/14 04:28:57;;;;;;;7.22;5.63;;;;;;;17.06;44.65;95737.09;5087072;28;20503;-71
2021/10/14 04:31:22;;;;;;;5.80;5.05;;;;;;;17.08;44.83;95735.03;5086530;28;20032;-72
2021/10/14 04:33:47;;;;;;;6.15;5.38;;;;;;;17.08;44.80;95732.34;5087010;28;20025;-71
2021/10/14 04:36:13;;;;;;;6.03;5.20;;;;;;;17.07;44.52;95721.69;5068825;28;20337;-71
2021/10/14 04:38:38;;;;;;;6.45;5.45;;;;;;;17.09;44.64;95735.88;5086629;28;20024;-71
2021/10/14 04:41:04;;;;;;;6.93;5.93;;;;;;;17.07;44.80;95735.22;5069708;28;20067;-71
2021/10/14 04:43:29;;;;;;;7.47;5.40;;;;;;;17.07;44.74;95736.06;5069881;28;20028;-71
2021/10/14 04:45:55;;;;;;;6.40;5.13;;;;;;;17.08;44.59;95735.03;5084882;28;20024;-71
2021/10/14 04:48:20;;;;;;;7.55;5.85;;;;;;;17.08;44.72;95747.72;5084084;28;20020;-74
2021/10/14 04:50:46;;;;;;;5.88;5.20;;;;;;;17.06;44.83;95745.22;5086212;28;20024;-73
2021/10/14 04:53:11;;;;;;;6.25;5.32;;;;;;;17.07;44.73;95748.78;5086147;28;20058;-73
2021/10/14 04:55:36;;;;;;;6.50;5.40;;;;;;;17.06;44.60;95750.66;5086433;28;20028;-74
2021/10/14 04:58:02;;;;;;;7.35;5.70;;;;;;;17.07;44.82;95741.50;5085296;28;20040;-71
2021/10/14 05:00:27;;;;;;;6.95;5.75;;;;;;;17.08;45.07;95759.44;5068522;28;20032;-71
2021/10/14 05:02:53;;;;;;;9.35;5.97;;;;;;;17.06;45.19;95750.66;5069100;28;20020;-73
2021/10/14 05:05:18;;;;;;;8.63;5.43;;;;;;;17.08;45.19;95745.00;5067428;28;20024;-72
2021/10/14 05:07:44;;;;;;;7.00;6.10;;;;;;;17.08;45.52;95754.00;5066050;28;20035;-71
2021/10/14 05:10:09;;;;;;;10.65;6.63;;;;;;;17.09;45.39;95758.38;5069382;28;20024;-72
2021/10/14 05:12:35;;;;;;;9.93;6.30;;;;;;;17.10;45.58;95760.06;5085881;28;20514;-73
2021/10/14 05:15:09;;;;;;;11.13;6.78;;;;;;;17.11;45.51;95756.31;5085556;28;20542;-72
2021/10/14 05:17:35;;;;;;;7.82;5.80;;;;;;;17.11;45.78;95758.16;5085851;28;20044;-72
2021/10/14 05:20:01;;;;;;;10.85;6.22;;;;;;;17.10;45.54;95760.06;5086036;28;20032;-72
2021/10/14 05:22:26;;;;;;;14.32;6.47;;;;;;;17.12;45.57;95757.97;5085654;28;20059;-72
2021/10/14 05:24:52;;;;;;;9.85;6.78;;;;;;;17.13;45.57;95767.78;5086258;28;20036;-72
2021/10/14 05:27:17;;;;;;;12.50;6.13;;;;;;;17.13;45.29;95765.06;5068676;28;20020;-72
2021/10/14 05:29:43;;;;;;;9.32;5.93;;;;;;;17.14;45.40;95763.16;5086182;28;20050;-72
2021/10/14 05:32:08;;;;;;;8.40;6.70;;;;;;;17.11;45.33;95764.44;5085226;28;20035;-72
2021/10/14 05:34:33;;;;;;;11.63;5.82;;;;;;;17.11;45.39;95764.44;5069070;28;20078;-72
2021/10/14 05:36:59;;;;;;;10.73;6.53;;;;;;;17.12;45.66;95768.78;5086803;28;20035;-72
2021/10/14 05:39:24;;;;;;;9.52;6.20;;;;;;;17.13;45.26;95769.63;5086806;28;20024;-72
2021/10/14 05:41:50;;;;;;;8.68;6.20;;;;;;;17.14;45.26;95774.84;5086260;28;20016;-72
2021/10/14 05:44:15;;;;;;;9.75;6.45;;;;;;;17.14;45.28;95774.84;5068114;28;20027;-72
2021/10/14 05:46:41;;;;;;;9.65;6.05;;;;;;;17.15;45.22;95775.69;5086022;28;20020;-74
2021/10/14 05:49:06;;;;;;;10.10;6.28;;;;;;;17.15;45.15;95775.69;5084840;28;20020;-72
2021/10/14 05:51:31;;;;;;;9.35;5.70;;;;;;;17.14;45.21;95777.56;5085636;28;20363;-72
2021/10/14 05:53:57;;;;;;;7.28;5.72;;;;;;;17.15;45.63;95783.81;5086325;28;20020;-72
2021/10/14 05:56:24;;;;;;;8.40;6.20;;;;;;;17.15;45.46;95779.22;5085431;28;20024;-72
2021/10/14 05:58:50;;;;;;;12.30;6.22;;;;;;;17.15;45.42;95781.09;5085736;28;20099;-72
2021/10/14 06:01:16;;;;;;;8.05;6.18;;;;;;;17.14;45.32;95793.81;5067789;28;20023;-72
2021/10/14 06:03:42;;;;;;;7.50;6.60;;;;;;;17.13;45.33;95797.59;5085819;28;20042;-72
2021/10/14 06:06:07;;;;;;;8.10;6.00;;;;;;;17.12;45.26;95793.19;5068011;28;20448;-72
2021/10/14 06:08:32;;;;;;;7.95;5.72;;;;;;;17.11;45.26;95807.78;5086957;28;20020;-72
2021/10/14 06:10:58;;;;;;;10.60;6.28;;;;;;;17.11;45.26;95809.66;5084907;28;20063;-72
2021/10/14 06:13:23;;;;;;;8.80;6.45;;;;;;;17.10;45.13;95810.72;5085032;28;20426;-72
2021/10/14 06:15:49;;;;;;;9.07;6.93;;;;;;;17.09;45.38;95812.56;5085289;28;20465;-72
2021/10/14 06:18:14;;;;;;;9.32;6.00;;;;;;;17.08;45.34;95813.63;5085966;28;20558;-72
2021/10/14 06:20:40;;;;;;;7.68;6.30;;;;;;;17.09;45.19;95826.13;5085490;28;20027;-72
2021/10/14 06:23:06;;;;;;;10.15;6.18;;;;;;;17.08;45.27;95821.75;5085654;28;20085;-72
2021/10/14 06:25:32;;;;;;;8.75;5.82;;;;;;;17.08;45.34;95829.88;5086954;28;20329;-72
2021/10/14 06:27:57;;;;;;;9.55;6.22;;;;;;;17.07;45.13;95832.78;5084591;28;20028;-72
2021/10/14 06:30:22;;;;;;;6.82;6.03;;;;;;;17.06;45.09;95826.50;5086185;28;20016;-72
2021/10/14 06:32:48;;;;;;;7.18;5.55;;;;;;;17.05;44.97;95836.53;5084500;28;20063;-72
2021/10/14 06:35:13;;;;;;;8.77;6.40;;;;;;;17.05;45.44;95838.41;5085751;28;20028;-72
2021/10/14 06:37:39;;;;;;;8.35;6.15;;;;;;;17.02;45.18;95838.81;5086337;28;20031;-72
2021/10/14 06:40:05;;;;;;;7.65;5.78;;;;;;;17.02;45.31;95836.09;5085812;28;20537;-72
2021/10/14 06:42:30;;;;;;;6.40;5.45;;;;;;;17.01;45.29;95839.84;5086372;28;20466;-72
2021/10/14 06:44:55;;;;;;;7.60;6.22;;;;;;;17.00;45.30;95844.44;5085747;28;20020;-73
2021/10/14 06:47:21;;;;;;;6.43;5.63;;;;;;;17.00;45.46;95840.91;5086275;28;20028;-72
2021/10/14 06:49:48;;;;;;;8.57;5.60;;;;;;;17.01;45.37;95847.97;5084271;28;20062;-72
2021/10/14 06:52:15;;;;;;;8.27;6.15;;;;;;;17.00;45.24;95849.88;5085864;28;20405;-72
2021/10/14 06:54:41;;;;;;;6.78;5.57;;;;;;;17.00;45.03;95847.16;5084626;28;20063;-72
2021/10/14 06:57:07;;;;;;;7.30;5.90;;;;;;;16.99;45.21;95859.03;5086010;28;20027;-72
2021/10/14 06:59:32;;;;;;;8.27;5.55;;;;;;;16.99;45.40;95861.72;5086105;28;20095;-72
2021/10/14 07:01:58;;;;;;;7.88;5.93;;;;;;;17.01;45.10;95861.53;5084485;28;20020;-72
2021/10/14 07:04:23;;;;;;;7.15;5.70;;;;;;;17.00;45.16;95859.84;5086239;28;20032;-73
2021/10/14 07:06:49;;;;;;;7.28;5.65;;;;;;;17.03;44.87;95862.16;5087539;28;20330;-71
2021/10/14 07:09:14;;;;;;;7.15;5.63;;;;;;;17.04;44.97;95871.94;5068529;28;20421;-73
2021/10/14 07:11:51;;;;;;;7.65;5.78;;;;;;;17.05;45.04;95869.06;5066937;28;20481;-73
2021/10/14 07:14:16;;;;;;;6.75;5.63;;;;;;;17.07;44.98;95876.97;5069418;28;20028;-73
2021/10/14 07:16:42;;;;;;;6.93;5.45;;;;;;;17.07;44.93;95871.56;5084486;28;20020;-73
2021/10/14 07:19:07;;;;;;;6.60;5.30;;;;;;;17.08;44.87;95873.25;5083900;28;20052;-73
2021/10/14 07:21:32;;;;;;;6.43;5.07;;;;;;;17.06;44.88;95872.56;5084732;28;20027;-73
2021/10/14 07:23:58;;;;;;;7.63;5.13;;;;;;;17.05;44.85;95877.19;5067320;28;20031;-73
2021/10/14 07:26:23;;;;;;;5.95;5.13;;;;;;;17.04;45.00;95871.94;5084561;28;20020;-73
2021/10/14 07:28:49;;;;;;;6.78;5.40;;;;;;;17.04;44.79;95864.66;5084019;28;20078;-73
2021/10/14 07:31:14;;;;;;;6.32;5.35;;;;;;;17.03;45.15;95871.13;5084431;28;20050;-73
2021/10/14 07:33:40;;;;;;;6.30;5.20;;;;;;;17.03;44.76;95873.00;5067078;28;20031;-73
2021/10/14 07:36:07;;;;;;;6.32;5.03;;;;;;;17.03;44.80;95873.00;5085542;28;20039;-73
2021/10/14 07:38:32;;;;;;;6.45;4.97;;;;;;;17.03;44.89;95862.16;5084376;28;20032;-73
2021/10/14 07:40:58;;;;;;;5.97;4.90;;;;;;;17.02;44.63;95865.91;5066628;28;20020;-73
2021/10/14 07:43:23;;;;;;;6.10;5.00;;;;;;;17.01;44.82;95869.66;5084595;28;20028;-73
2021/10/14 07:45:49;;;;;;;6.72;4.57;;;;;;;17.00;44.99;95865.28;5084360;28;20391;-73
2021/10/14 07:48:14;;;;;;;5.35;4.47;;;;;;;16.98;44.92;95861.94;5089316;28;20054;-73
2021/10/14 07:50:40;;;;;;;5.32;4.40;;;;;;;16.96;44.92;95870.28;5086855;28;20032;-73
2021/10/14 07:53:15;;;;;;;6.70;4.40;;;;;;;16.95;44.86;95863.19;5089031;28;20024;-73
2021/10/14 07:55:41;;;;;;;5.68;4.20;;;;;;;16.95;44.81;95874.03;5071389;28;20019;-73
2021/10/14 07:58:07;;;;;;;5.68;4.30;;;;;;;16.93;44.97;95876.09;5087337;28;20489;-73
2021/10/14 08:00:33;;;;;;;7.20;4.70;;;;;;;16.93;44.83;95876.09;5087547;28;20021;-74
2021/10/14 08:02:58;;;;;;;6.30;4.50;;;;;;;16.93;45.17;95876.94;5070239;28;20520;-73
2021/10/14 08:05:24;;;;;;;5.05;4.40;;;;;;;16.91;44.63;95876.31;5087480;28;20024;-73
2021/10/14 08:07:50;;;;;;;6.28;4.10;;;;;;;16.90;44.63;95871.94;5086753;28;20037;-73
2021/10/14 08:10:15;;;;;;;6.00;4.65;;;;;;;16.89;44.86;95875.72;5070592;28;20034;-73
2021/10/14 08:12:42;;;;;;;6.65;3.78;;;;;;;16.89;44.95;95878.41;5086989;28;20028;-73
2021/10/14 08:15:08;;;;;;;5.57;3.92;;;;;;;16.90;44.84;95877.38;5088285;28;20024;-73
2021/10/14 08:17:34;;;;;;;5.13;3.78;;;;;;;16.87;44.80;95872.34;5087867;28;20085;-73
2021/10/14 08:19:59;;;;;;;5.15;3.80;;;;;;;16.90;44.82;95877.38;5088005;28;20420;-73
2021/10/14 08:22:25;;;;;;;5.53;3.80;;;;;;;16.92;44.79;95874.44;5088666;28;20445;-73
2021/10/14 08:24:51;;;;;;;4.72;3.92;;;;;;;16.93;44.79;95874.25;5069600;28;20520;-73
2021/10/14 08:27:16;;;;;;;8.23;3.60;;;;;;;16.96;44.84;95875.69;5088543;28;20020;-73
2021/10/14 08:29:42;;;;;;;4.60;3.70;;;;;;;16.98;44.58;95867.34;5069967;28;20027;-71
2021/10/14 08:32:07;;;;;;;5.10;3.65;;;;;;;17.00;44.37;95868.00;5088355;28;20035;-71
2021/10/14 08:34:33;;;;;;;4.72;3.50;;;;;;;17.00;44.62;95865.28;5070322;28;20024;-74
2021/10/14 08:36:58;;;;;;;4.95;3.53;;;;;;;17.03;44.66;95864.88;5086409;28;20042;-74
2021/10/14 08:39:24;;;;;;;5.15;3.40;;;;;;;17.03;44.49;95865.72;5088685;28;20449;-74
2021/10/14 08:41:50;;;;;;;4.55;3.47;;;;;;;17.05;44.35;95870.91;5087361;28;20035;-74
2021/10/14 08:44:31;;;;;;;6.15;3.50;;;;;;;17.03;44.47;95856.75;5087172;28;20024;-73
2021/10/14 08:46:57;;;;;;;4.25;3.25;;;;;;;17.04;44.40;95861.09;5071447;28;20036;-72
2021/10/14 08:49:22;;;;;;;4.05;3.00;;;;;;;17.04;44.36;95869.22;5069881;28;20024;-74
2021/10/14 08:51:48;;;;;;;4.15;3.10;;;;;;;17.03;44.41;95854.88;5086496;28;20114;-72
2021/10/14 08:54:14;;;;;;;5.47;3.28;;;;;;;17.01;44.29;95862.38;5069426;28;20413;-72
2021/10/14 08:56:43;;;;;;;4.07;2.92;;;;;;;16.98;44.36;95859.22;5086713;28;20474;-73
2021/10/14 08:59:09;;;;;;;3.53;2.65;;;;;;;16.98;44.63;95856.50;5069095;28;20016;-73
2021/10/14 09:01:34;;;;;;;3.47;2.83;;;;;;;16.96;44.31;95864.03;5069924;28;20024;-73
2021/10/14 09:04:00;;;;;;;4.88;2.97;;;;;;;16.96;44.25;95862.16;5085666;28;20024;-73
2021/10/14 09:06:25;;;;;;;5.35;2.83;;;;;;;16.95;44.26;95862.34;5069531;28;20021;-73
2021/10/14 09:08:52;;;;;;;3.65;2.85;;;;;;;16.95;44.42;95865.06;5087466;28;20020;-73
2021/10/14 09:11:28;;;;;;;4.50;2.70;;;;;;;16.92;44.34;95864.44;5086026;28;20067;-73
2021/10/14 09:13:57;;;;;;;4.18;2.75;;;;;;;16.92;44.40;95856.31;5086484;28;20024;-73
2021/10/14 09:16:41;;;;;;;4.82;2.67;;;;;;;16.90;44.31;95860.25;5085888;28;20095;-73
2021/10/14 09:19:18;;;;;;;3.40;2.60;;;;;;;16.88;44.21;95856.94;5069425;28;20032;-73
2021/10/14 09:21:48;;;;;;;3.58;2.42;;;;;;;16.88;44.43;95857.75;5087569;28;20086;-73
2021/10/14 09:24:40;;;;;;;3.70;2.80;;;;;;;16.87;44.50;95855.25;5085790;28;20060;-73
2021/10/14 09:27:10;;;;;;;4.43;2.50;;;;;;;16.87;44.28;95860.69;5084899;28;20426;-73
2021/10/14 09:29:37;;;;;;;3.42;2.40;;;;;;;16.87;44.22;95860.69;5085543;28;20530;-73
2021/10/14 09:32:03;;;;;;;3.30;2.30;;;;;;;16.85;44.16;95863.59;5085753;28;20552;-73
2021/10/14 09:34:36;;;;;;;2.90;2.00;;;;;;;16.84;44.19;95867.34;5086969;28;20035;-73
2021/10/14 09:37:03;;;;;;;3.50;2.25;;;;;;;16.83;44.30;95862.97;5085571;28;20585;-73
2021/10/14 09:39:29;;;;;;;3.72;2.42;;;;;;;16.84;44.34;95871.94;5069377;28;20437;-73
2021/10/14 09:41:55;;;;;;;2.95;2.22;;;;;;;16.83;44.30;95865.66;5085146;28;20486;-73
2021/10/14 09:44:20;;;;;;;3.60;2.45;;;;;;;16.83;44.25;95862.16;5068951;28;20020;-73
2021/10/14 09:46:47;;;;;;;2.95;2.25;;;;;;;16.83;44.21;95860.25;5086646;28;20505;-73
2021/10/14 09:49:23;;;;;;;3.28;2.17;;;;;;;16.85;44.13;95860.88;5068809;28;20486;-73
2021/10/14 09:51:49;;;;;;;3.15;1.95;;;;;;;16.88;44.22;95856.94;5086694;28;20478;-74
2021/10/14 09:54:15;;;;;;;2.85;1.92;;;;;;;16.88;44.22;95859.66;5085143;28;20462;-73
2021/10/14 09:56:40;;;;;;;2.92;1.80;;;;;;;16.90;43.92;95858.41;5085630;28;20474;-73
2021/10/14 09:59:06;;;;;;;2.85;2.03;;;;;;;16.91;44.00;95860.06;5086273;28;20485;-73
2021/10/14 10:01:32;;;;;;;2.65;1.90;;;;;;;16.92;43.87;95860.91;5085909;28;20016;-73
2021/10/14 10:03:58;;;;;;;3.55;2.30;;;;;;;16.96;44.14;95864.03;5068241;28;20028;-73
2021/10/14 10:06:26;;;;;;;4.43;2.25;;;;;;;16.96;43.79;95861.31;5085464;28;20102;-73
2021/10/14 10:08:51;;;;;;;3.25;1.88;;;;;;;16.97;43.85;95865.69;5067516;28;20028;-73
2021/10/14 10:11:17;;;;;;;2.83;1.90;;;;;;;16.96;43.67;95864.84;5068117;28;20039;-73
2021/10/14 10:13:47;;;;;;;3.50;1.95;;;;;;;16.95;43.64;95867.78;5085248;28;20031;-73
2021/10/14 10:16:17;;;;;;;4.30;2.50;;;;;;;16.93;43.78;95865.28;5084770;28;20020;-72
2021/10/14 10:18:43;;;;;;;4.38;2.03;;;;;;;16.91;43.68;95857.34;5085601;28;20169;-72
2021/10/14 10:21:29;;;;;;;3.88;2.47;;;;;;;16.91;43.80;95862.75;5084412;28;20056;-72
2021/10/14 10:23:58;;;;;;;3.80;2.03;;;;;;;16.91;43.74;95853.81;5085281;28;20115;-73
2021/10/14 10:26:36;;;;;;;3.65;2.25;;;;;;;16.89;43.74;95854.03;5068048;28;20024;-73
2021/10/14 10:29:21;;;;;;;3.67;2.15;;;;;;;16.89;43.71;95855.91;5084889;28;20597;-73
2021/10/14 10:31:48;;;;;;;3.05;2.13;;;;;;;16.87;43.54;95853.41;5087009;28;20554;-73
2021/10/14 10:34:41;;;;;;;3.88;2.25;;;;;;;16.86;43.60;95859.84;5084171;28;20024;-73
2021/10/14 10:37:11;;;;;;;3.40;2.22;;;;;;;16.83;43.72;95843.19;5086425;28;20059;-73
2021/10/14 10:39:44;;;;;;;3.35;2.00;;;;;;;16.83;43.71;95838.59;5084642;28;20028;-73
2021/10/14 10:42:38;;;;;;;3.53;2.17;;;;;;;16.82;43.78;95836.94;5084782;28;20035;-73
2021/10/14 10:45:07;;;;;;;3.15;1.85;;;;;;;16.82;43.83;95831.50;5079268;28;20050;-73
2021/10/14 10:47:36;;;;;;;3.42;2.00;;;;;;;16.81;43.73;95830.66;5084343;28;20478;-73
2021/10/14 10:50:02;;;;;;;3.13;2.00;;;;;;;16.81;43.47;95827.13;5086144;28;20119;-73
2021/10/14 10:52:38;;;;;;;3.17;2.20;;;;;;;16.80;43.54;95823.59;5051061;28;20058;-73
2021/10/14 10:55:26;;;;;;;3.47;1.85;;;;;;;16.81;43.53;95833.38;5084609;28;20056;-73
2021/10/14 10:57:53;;;;;;;2.88;2.05;;;;;;;16.81;43.46;95824.44;5078052;28;20040;-73
2021/10/14 11:00:19;;;;;;;3.38;2.00;;;;;;;16.80;43.53;95829.00;5067350;28;20024;-73
2021/10/14 11:02:45;;;;;;;3.58;1.88;;;;;;;16.79;43.45;95830.06;5068215;28;20051;-73
2021/10/14 11:05:11;;;;;;;3.65;2.05;;;;;;;16.80;43.41;95828.16;5067569;28;20103;-73
2021/10/14 11:07:37;;;;;;;3.30;1.90;;;;;;;16.78;43.33;95833.78;5067929;28;20020;-74
2021/10/14 11:10:03;;;;;;;3.88;1.90;;;;;;;16.79;43.51;95835.47;5067876;28;20020;-74
2021/10/14 11:12:28;;;;;;;3.17;1.80;;;;;;;16.81;43.53;95824.44;5083919;28;20409;-73
2021/10/14 11:14:53;;;;;;;3.17;1.70;;;;;;;16.82;43.50;95823.38;5068410;28;20028;-73
2021/10/14 11:17:19;;;;;;;2.58;1.70;;;;;;;16.85;43.54;95814.84;5084200;28;20028;-73
2021/10/14 11:19:45;;;;;;;3.03;1.80;;;;;;;16.87;43.42;95817.34;5068490;28;20047;-73
2021/10/14 11:22:19;;;;;;;3.85;2.03;;;;;;;16.88;43.67;95819.84;5088006;28;20032;-72
2021/10/14 11:24:46;;;;;;;3.72;1.80;;;;;;;16.90;43.01;95815.06;5071405;28;20046;-72
2021/10/14 11:27:19;;;;;;;2.90;1.75;;;;;;;16.90;43.16;95820.47;5054909;28;20450;-72
2021/10/14 11:29:45;;;;;;;3.75;1.90;;;;;;;16.85;42.99;95804.00;5087879;28;20017;-72